Time;durP1;ratioP1;P1;durP2;ratioP2;P2;SDS_P1;SDS_P2;PMS_P1;PMS_P2;Temp;Humidity;BMP_temperature;BMP_pressure;BME280_temperature;BME280_humidity;BME280_pressure;Samples;Min_cycle;Max_cycle;Signal;HPM_P1;HPM_P2
2023/08/03 00:00:22;;;;;;;;;;;26.90;77.00;;;;;;5042229;28;42941;-78
2023/08/03 00:02:48;;;;;;;;;;;27.00;73.30;;;;;;5043862;28;43575;-79
2023/08/03 00:05:17;;;;;;;;;;;27.10;72.10;;;;;;5044069;28;42944;-78
2023/08/03 00:07:43;;;;;;;;;;;27.00;72.40;;;;;;5044163;28;43686;-83
2023/08/03 00:10:08;;;;;;;;;;;27.00;76.30;;;;;;5040112;28;43006;-83
2023/08/03 00:12:34;;;;;;;;;;;27.00;73.00;;;;;;5023491;28;42830;-79
2023/08/03 00:14:59;;;;;;;;;;;27.00;73.80;;;;;;5022791;28;42942;-80
2023/08/03 00:17:25;;;;;;;;;;;27.00;73.10;;;;;;5023108;28;43731;-79
2023/08/03 00:19:50;;;;;;;;;;;26.90;72.10;;;;;;5023773;28;42869;-78
2023/08/03 00:22:16;;;;;;;;;;;26.90;74.40;;;;;;5031944;28;45385;-79
2023/08/03 00:24:41;;;;;;;;;;;26.80;78.70;;;;;;5024068;28;42948;-85
2023/08/03 00:27:07;;;;;;;;;;;27.00;73.30;;;;;;5024109;28;42849;-79
2023/08/03 00:29:32;;;;;;;;;;;27.00;71.20;;;;;;5023571;28;42997;-79
2023/08/03 00:32:00;;;;;;;;;;;27.00;71.40;;;;;;5024845;28;42975;-79
2023/08/03 00:34:26;;;;;;;;;;;27.10;72.00;;;;;;5023521;28;43197;-78
2023/08/03 00:36:51;;;;;;;;;;;26.90;75.00;;;;;;5023639;28;43657;-80
2023/08/03 00:39:17;;;;;;;;;;;27.10;72.30;;;;;;5023563;28;42927;-78
2023/08/03 00:41:42;;;;;;;;;;;27.10;73.40;;;;;;5029541;28;42995;-84
2023/08/03 00:44:08;;;;;;;;;;;27.60;74.00;;;;;;5044139;28;42881;-82
2023/08/03 00:46:33;;;;;;;;;;;27.10;71.40;;;;;;5042564;28;43434;-78
2023/08/03 00:48:59;;;;;;;;;;;27.00;72.80;;;;;;5043601;28;42895;-80
2023/08/03 00:51:25;;;;;;;;;;;27.00;71.40;;;;;;5040051;28;44426;-80
2023/08/03 00:53:50;;;;;;;;;;;27.00;76.60;;;;;;5023747;28;43140;-84
2023/08/03 00:56:16;;;;;;;;;;;27.00;74.70;;;;;;5023590;28;43505;-85
2023/08/03 00:58:42;;;;;;;;;;;27.00;71.20;;;;;;5024142;28;42770;-83
2023/08/03 01:01:07;;;;;;;;;;;27.00;71.90;;;;;;5023427;28;43699;-84
2023/08/03 01:03:33;;;;;;;;;;;27.10;71.20;;;;;;5027140;28;43708;-79
2023/08/03 01:05:58;;;;;;;;;;;27.10;71.00;;;;;;5027573;28;43627;-79
2023/08/03 01:08:24;;;;;;;;;;;27.10;70.80;;;;;;5043133;28;43160;-79
2023/08/03 01:10:50;;;;;;;;;;;27.10;70.90;;;;;;5033563;28;42930;-79
2023/08/03 01:13:16;;;;;;;;;;;27.10;71.00;;;;;;5033475;28;42920;-82
2023/08/03 01:15:41;;;;;;;;;;;27.00;73.90;;;;;;5046626;28;43615;-79
2023/08/03 01:18:07;;;;;;;;;;;27.10;76.40;;;;;;5044813;28;43624;-80
2023/08/03 01:20:35;;;;;;;;;;;27.00;74.10;;;;;;5045183;28;43539;-81
2023/08/03 01:23:04;;;;;;;;;;;26.90;75.70;;;;;;5047581;28;42803;-83
2023/08/03 01:25:30;;;;;;;;;;;27.00;71.40;;;;;;5045628;28;43265;-79
2023/08/03 01:27:56;;;;;;;;;;;27.00;70.90;;;;;;5038826;28;43074;-83
2023/08/03 01:30:21;;;;;;;;;;;27.00;71.00;;;;;;5027053;28;43253;-80
2023/08/03 01:32:47;;;;;;;;;;;27.00;70.90;;;;;;5026912;28;42857;-84
2023/08/03 01:35:13;;;;;;;;;;;27.00;70.90;;;;;;5026886;28;42889;-79
2023/08/03 01:37:38;;;;;;;;;;;27.00;70.90;;;;;;5027984;28;42897;-84
2023/08/03 01:40:04;;;;;;;;;;;27.00;71.20;;;;;;5025069;28;44195;-79
2023/08/03 01:42:30;;;;;;;;;;;27.00;72.60;;;;;;5024255;28;43015;-80
2023/08/03 01:44:55;;;;;;;;;;;27.10;74.90;;;;;;5022303;28;43498;-80
2023/08/03 01:47:21;;;;;;;;;;;27.10;72.90;;;;;;5025607;28;43326;-80
2023/08/03 01:49:46;;;;;;;;;;;26.90;78.40;;;;;;5037278;28;45856;-78
2023/08/03 01:52:12;;;;;;;;;;;26.80;81.70;;;;;;5044171;28;43128;-79
2023/08/03 01:54:37;;;;;;;;;;;27.10;82.90;;;;;;5045461;28;44046;-84
2023/08/03 01:57:03;;;;;;;;;;;27.00;77.60;;;;;;5045764;28;42867;-79
2023/08/03 01:59:28;;;;;;;;;;;26.80;73.30;;;;;;5036639;28;42975;-83
2023/08/03 02:01:54;;;;;;;;;;;26.80;74.90;;;;;;5027310;28;42994;-79
2023/08/03 02:04:20;;;;;;;;;;;;;;;;;;5025503;28;43343;-78
2023/08/03 02:06:47;;;;;;;;;;;26.80;70.90;;;;;;5045017;28;43047;-79
2023/08/03 02:09:13;;;;;;;;;;;26.90;71.40;;;;;;5044029;28;42848;-85
2023/08/03 02:11:38;;;;;;;;;;;26.80;71.80;;;;;;5035344;28;42990;-80
2023/08/03 02:14:04;;;;;;;;;;;26.80;71.20;;;;;;5025113;28;42940;-79
2023/08/03 02:16:29;;;;;;;;;;;26.80;71.20;;;;;;5025856;28;42908;-78
2023/08/03 02:18:55;;;;;;;;;;;26.80;71.20;;;;;;5024046;28;43585;-80
2023/08/03 02:21:20;;;;;;;;;;;26.80;71.20;;;;;;5037705;28;42974;-83
2023/08/03 02:23:46;;;;;;;;;;;26.80;71.40;;;;;;5034036;28;44128;-79
2023/08/03 02:26:11;;;;;;;;;;;26.80;71.40;;;;;;5045866;28;42924;-79
2023/08/03 02:28:37;;;;;;;;;;;26.70;71.60;;;;;;5046098;28;42864;-79
2023/08/03 02:31:02;;;;;;;;;;;26.70;71.90;;;;;;5040908;28;43079;-83
2023/08/03 02:33:28;;;;;;;;;;;26.70;71.80;;;;;;5043745;28;43493;-79
2023/08/03 02:35:53;;;;;;;;;;;26.80;71.60;;;;;;5045272;28;42900;-81
2023/08/03 02:38:19;;;;;;;;;;;26.80;71.40;;;;;;5044127;28;42958;-79
2023/08/03 02:40:44;;;;;;;;;;;26.80;71.20;;;;;;5034900;28;43529;-82
2023/08/03 02:43:10;;;;;;;;;;;26.90;71.20;;;;;;5024913;28;43531;-79
2023/08/03 02:45:35;;;;;;;;;;;26.80;71.20;;;;;;5025064;28;43087;-79
2023/08/03 02:48:01;;;;;;;;;;;26.80;71.20;;;;;;5037882;28;43070;-80
2023/08/03 02:50:26;;;;;;;;;;;26.70;71.60;;;;;;5025473;28;43081;-86
2023/08/03 02:52:52;;;;;;;;;;;26.60;71.80;;;;;;5024143;28;43491;-86
2023/08/03 02:55:17;;;;;;;;;;;26.60;71.90;;;;;;5025078;28;42952;-78
2023/08/03 02:57:43;;;;;;;;;;;26.60;72.70;;;;;;5026004;28;42849;-82
2023/08/03 03:00:09;;;;;;;;;;;26.50;72.10;;;;;;5025791;28;43059;-80
2023/08/03 03:02:35;;;;;;;;;;;26.50;72.10;;;;;;5033324;28;43307;-79
2023/08/03 03:05:00;;;;;;;;;;;26.50;72.00;;;;;;5025946;28;43077;-80
2023/08/03 03:07:27;;;;;;;;;;;26.60;72.10;;;;;;5023713;28;43619;-80
2023/08/03 03:09:52;;;;;;;;;;;26.60;72.00;;;;;;5032493;28;43241;-84
2023/08/03 03:12:18;;;;;;;;;;;26.60;71.80;;;;;;5039953;28;42990;-79
2023/08/03 03:14:43;;;;;;;;;;;26.70;71.90;;;;;;5025952;28;43069;-79
2023/08/03 03:17:09;;;;;;;;;;;26.80;71.40;;;;;;5024745;28;43007;-84
2023/08/03 03:19:34;;;;;;;;;;;26.70;71.20;;;;;;5024846;28;43141;-79
2023/08/03 03:22:00;;;;;;;;;;;26.70;71.10;;;;;;5023829;28;42896;-79
2023/08/03 03:24:25;;;;;;;;;;;26.70;71.20;;;;;;5024377;28;42990;-79
2023/08/03 03:26:51;;;;;;;;;;;26.80;71.40;;;;;;5038710;28;45030;-79
2023/08/03 03:29:16;;;;;;;;;;;26.70;71.10;;;;;;5024440;28;42968;-79
2023/08/03 03:31:42;;;;;;;;;;;26.70;70.30;;;;;;5025553;28;42960;-79
2023/08/03 03:34:07;;;;;;;;;;;26.80;70.80;;;;;;5022231;28;43001;-81
2023/08/03 03:36:33;;;;;;;;;;;26.80;70.70;;;;;;5038218;28;42915;-79
2023/08/03 03:38:58;;;;;;;;;;;26.80;70.80;;;;;;5040550;28;43260;-79
2023/08/03 03:41:24;;;;;;;;;;;26.80;70.80;;;;;;5025235;28;42883;-78
2023/08/03 03:43:49;;;;;;;;;;;26.80;70.70;;;;;;5023599;28;43059;-79
2023/08/03 03:46:15;;;;;;;;;;;26.80;70.60;;;;;;5032161;28;43461;-78
2023/08/03 03:48:40;;;;;;;;;;;26.80;70.60;;;;;;5028034;28;42761;-83
2023/08/03 03:51:06;;;;;;;;;;;26.80;70.60;;;;;;5059171;28;42903;-78
2023/08/03 03:53:31;;;;;;;;;;;26.80;70.60;;;;;;5063740;28;42915;-85
2023/08/03 03:55:57;;;;;;;;;;;26.80;70.80;;;;;;5064731;28;42958;-79
2023/08/03 03:58:22;;;;;;;;;;;26.80;70.80;;;;;;5051722;28;43084;-80
2023/08/03 04:00:48;;;;;;;;;;;26.80;70.60;;;;;;5025775;28;42901;-83
2023/08/03 04:03:13;;;;;;;;;;;26.70;70.60;;;;;;5024542;28;42940;-79
2023/08/03 04:05:39;;;;;;;;;;;26.80;71.40;;;;;;5024266;28;42943;-80
2023/08/03 04:08:05;;;;;;;;;;;26.70;70.80;;;;;;5024445;28;42932;-81
2023/08/03 04:10:30;;;;;;;;;;;26.80;70.80;;;;;;5025086;28;43489;-81
2023/08/03 04:12:56;;;;;;;;;;;26.80;70.80;;;;;;5025206;28;42937;-85
2023/08/03 04:15:21;;;;;;;;;;;26.80;70.70;;;;;;5024454;28;42882;-80
2023/08/03 04:17:48;;;;;;;;;;;26.70;70.90;;;;;;5035292;28;42957;-84
2023/08/03 04:20:14;;;;;;;;;;;26.70;71.00;;;;;;5042396;28;43546;-82
2023/08/03 04:22:40;;;;;;;;;;;26.80;71.00;;;;;;5042128;28;42899;-85
2023/08/03 04:25:05;;;;;;;;;;;26.80;70.90;;;;;;5043639;28;42930;-80
2023/08/03 04:27:31;;;;;;;;;;;26.80;70.90;;;;;;5039744;28;43042;-80
2023/08/03 04:29:56;;;;;;;;;;;26.80;70.80;;;;;;5044330;28;43395;-85
2023/08/03 04:32:22;;;;;;;;;;;26.80;70.80;;;;;;5024316;28;43007;-83
2023/08/03 04:34:47;;;;;;;;;;;26.80;70.70;;;;;;5038424;28;43806;-80
2023/08/03 04:37:13;;;;;;;;;;;26.80;70.80;;;;;;5033641;28;42839;-80
2023/08/03 04:39:38;;;;;;;;;;;26.80;70.90;;;;;;5025968;28;43119;-81
2023/08/03 04:42:04;;;;;;;;;;;26.80;71.00;;;;;;5025937;28;43020;-81
2023/08/03 04:44:29;;;;;;;;;;;26.80;71.10;;;;;;5025545;28;43218;-85
2023/08/03 04:46:55;;;;;;;;;;;26.80;71.00;;;;;;5026911;28;43015;-82
2023/08/03 04:49:22;;;;;;;;;;;26.70;70.90;;;;;;5025679;28;43073;-83
2023/08/03 04:51:49;;;;;;;;;;;26.70;71.00;;;;;;5027109;28;42994;-80
2023/08/03 04:54:14;;;;;;;;;;;26.70;71.10;;;;;;5027269;28;43566;-82
2023/08/03 04:56:40;;;;;;;;;;;26.70;71.00;;;;;;5027349;28;43014;-81
2023/08/03 04:59:06;;;;;;;;;;;26.80;71.20;;;;;;5046259;28;43634;-85
2023/08/03 05:01:31;;;;;;;;;;;26.80;71.30;;;;;;5047777;28;42888;-81
2023/08/03 05:03:58;;;;;;;;;;;26.80;71.20;;;;;;5047500;28;43394;-82
2023/08/03 05:06:23;;;;;;;;;;;26.80;71.10;;;;;;5047865;28;42852;-80
2023/08/03 05:08:50;;;;;;;;;;;26.80;71.10;;;;;;5044891;28;43322;-81
2023/08/03 05:11:16;;;;;;;;;;;26.80;71.10;;;;;;5046176;28;43151;-82
2023/08/03 05:13:41;;;;;;;;;;;26.80;71.30;;;;;;5047628;28;43509;-82
2023/08/03 05:16:07;;;;;;;;;;;26.80;71.30;;;;;;5047709;28;42859;-84
2023/08/03 05:18:32;;;;;;;;;;;26.80;71.50;;;;;;5045502;28;43700;-81
2023/08/03 05:20:58;;;;;;;;;;;26.80;71.40;;;;;;5047217;28;42999;-81
2023/08/03 05:23:23;;;;;;;;;;;26.80;71.40;;;;;;5047182;28;42952;-81
2023/08/03 05:25:53;;;;;;;;;;;26.80;71.40;;;;;;5047389;28;42991;-82
2023/08/03 05:28:19;;;;;;;;;;;26.80;71.40;;;;;;5047100;28;42919;-81
2023/08/03 05:30:44;;;;;;;;;;;26.80;71.40;;;;;;5045242;28;43014;-81
2023/08/03 05:33:10;;;;;;;;;;;26.80;71.40;;;;;;5047349;28;43062;-81
2023/08/03 05:35:35;;;;;;;;;;;26.90;71.50;;;;;;5047358;28;42833;-81
2023/08/03 05:38:00;;;;;;;;;;;26.80;72.10;;;;;;5047145;28;43382;-82
2023/08/03 05:40:26;;;;;;;;;;;26.80;71.50;;;;;;5045072;28;44021;-81
2023/08/03 05:42:52;;;;;;;;;;;26.90;71.70;;;;;;5045959;28;43561;-81
2023/08/03 05:45:34;;;;;;;;;;;26.90;71.60;;;;;;5046885;28;42799;-81
2023/08/03 05:47:59;;;;;;;;;;;26.90;71.30;;;;;;5045467;28;43803;-81
2023/08/03 05:50:25;;;;;;;;;;;26.90;71.10;;;;;;5045106;28;42978;-83
2023/08/03 05:52:51;;;;;;;;;;;26.90;71.00;;;;;;5046423;28;43486;-81
2023/08/03 05:55:17;;;;;;;;;;;26.90;71.00;;;;;;5047313;28;42899;-81
2023/08/03 05:57:42;;;;;;;;;;;26.90;74.40;;;;;;5044482;28;44425;-81
2023/08/03 06:00:19;;;;;;;;;;;26.90;71.20;;;;;;5045703;28;42953;-82
2023/08/03 06:02:45;;;;;;;;;;;26.40;70.10;;;;;;5026595;28;43870;-82
2023/08/03 06:05:30;;;;;;;;;;;26.90;70.30;;;;;;5042927;28;43929;-83
2023/08/03 06:07:55;;;;;;;;;;;26.90;70.00;;;;;;5040328;28;43025;-85
2023/08/03 06:10:21;;;;;;;;;;;26.90;69.60;;;;;;5039855;28;42881;-81
2023/08/03 06:12:46;;;;;;;;;;;26.90;69.50;;;;;;5038120;28;43474;-82
2023/08/03 06:15:12;;;;;;;;;;;26.90;69.50;;;;;;5044951;28;42821;-84
2023/08/03 06:17:37;;;;;;;;;;;26.90;69.60;;;;;;5044837;28;42911;-83
2023/08/03 06:20:11;;;;;;;;;;;26.90;69.80;;;;;;5044882;28;42994;-82
2023/08/03 06:22:36;;;;;;;;;;;26.90;70.10;;;;;;5040731;28;42992;-81
2023/08/03 06:25:05;;;;;;;;;;;26.90;70.10;;;;;;5038261;28;43100;-82
2023/08/03 06:27:30;;;;;;;;;;;26.90;70.00;;;;;;5035281;28;42966;-82
2023/08/03 06:29:56;;;;;;;;;;;26.90;70.00;;;;;;5036896;28;43113;-82
2023/08/03 06:32:23;;;;;;;;;;;26.90;69.70;;;;;;5035446;28;44660;-81
2023/08/03 06:34:48;;;;;;;;;;;26.90;69.70;;;;;;5037931;28;42968;-82
2023/08/03 06:37:14;;;;;;;;;;;26.90;69.40;;;;;;5036901;28;42848;-82
2023/08/03 06:39:39;;;;;;;;;;;26.90;69.10;;;;;;5034855;28;42713;-81
2023/08/03 06:42:05;;;;;;;;;;;26.90;68.60;;;;;;5035747;28;42811;-84
2023/08/03 06:44:31;;;;;;;;;;;26.90;68.70;;;;;;5040891;28;43001;-82
2023/08/03 06:46:56;;;;;;;;;;;27.00;68.70;;;;;;5034744;28;43679;-82
2023/08/03 06:49:22;;;;;;;;;;;27.00;68.80;;;;;;5036556;28;43023;-82
2023/08/03 06:51:48;;;;;;;;;;;27.00;68.80;;;;;;5035890;28;43400;-81
2023/08/03 06:54:13;;;;;;;;;;;27.00;68.70;;;;;;5034770;28;43050;-80
2023/08/03 06:56:39;;;;;;;;;;;27.10;68.50;;;;;;5031303;28;42943;-81
2023/08/03 06:59:04;;;;;;;;;;;27.10;68.40;;;;;;5038376;28;43072;-81
2023/08/03 07:01:30;;;;;;;;;;;27.10;68.10;;;;;;5037122;28;43349;-81
2023/08/03 07:03:55;;;;;;;;;;;27.10;68.10;;;;;;5038067;28;43109;-84
2023/08/03 07:06:21;;;;;;;;;;;27.10;68.10;;;;;;5038568;28;43781;-82
2023/08/03 07:08:46;;;;;;;;;;;27.10;68.20;;;;;;5036339;28;43058;-81
2023/08/03 07:11:12;;;;;;;;;;;27.10;70.10;;;;;;5031974;28;43058;-81
2023/08/03 07:13:38;;;;;;;;;;;27.10;68.30;;;;;;5042731;28;43027;-81
2023/08/03 07:16:07;;;;;;;;;;;27.10;67.90;;;;;;5045192;28;43679;-82
2023/08/03 07:18:33;;;;;;;;;;;27.10;67.80;;;;;;5039244;28;43098;-82
2023/08/03 07:21:02;;;;;;;;;;;27.20;67.90;;;;;;5034689;28;42990;-82
2023/08/03 07:23:28;;;;;;;;;;;27.20;67.80;;;;;;5032544;28;42928;-81
2023/08/03 07:25:54;;;;;;;;;;;27.20;67.90;;;;;;5035066;28;43672;-82
2023/08/03 07:28:20;;;;;;;;;;;27.20;68.00;;;;;;5034136;28;42915;-82
2023/08/03 07:30:45;;;;;;;;;;;27.20;67.10;;;;;;5036467;28;43126;-81
2023/08/03 07:33:11;;;;;;;;;;;27.20;68.70;;;;;;5035016;28;42895;-82
2023/08/03 07:35:37;;;;;;;;;;;27.20;69.40;;;;;;5035028;28;43398;-82
2023/08/03 07:38:02;;;;;;;;;;;27.20;71.10;;;;;;5032455;28;43368;-81
2023/08/03 07:40:28;;;;;;;;;;;27.20;71.10;;;;;;5036510;28;43057;-81
2023/08/03 07:42:53;;;;;;;;;;;27.20;68.30;;;;;;5035341;28;43066;-81
2023/08/03 07:45:19;;;;;;;;;;;27.30;67.90;;;;;;5033502;28;43098;-81
2023/08/03 07:47:44;;;;;;;;;;;27.20;67.00;;;;;;5038656;28;43085;-80
2023/08/03 07:50:10;;;;;;;;;;;27.20;68.20;;;;;;5042069;28;42989;-81
2023/08/03 07:52:36;;;;;;;;;;;27.20;67.10;;;;;;5042307;28;43092;-81
2023/08/03 07:55:02;;;;;;;;;;;27.30;67.00;;;;;;5040185;28;43953;-83
2023/08/03 07:57:27;;;;;;;;;;;27.30;67.80;;;;;;5037987;28;43086;-81
2023/08/03 07:59:53;;;;;;;;;;;27.30;70.50;;;;;;5034346;28;43911;-81
2023/08/03 08:02:18;;;;;;;;;;;27.20;67.00;;;;;;5039842;28;43041;-81
2023/08/03 08:04:47;;;;;;;;;;;27.30;67.80;;;;;;5044028;28;42909;-80
2023/08/03 08:07:13;;;;;;;;;;;27.30;67.60;;;;;;5030479;28;42940;-80
2023/08/03 08:09:38;;;;;;;;;;;27.30;67.00;;;;;;5024482;28;42992;-81
2023/08/03 08:12:05;;;;;;;;;;;27.30;67.70;;;;;;5023662;28;43045;-80
2023/08/03 08:14:31;;;;;;;;;;;27.30;66.90;;;;;;5023455;28;42922;-81
2023/08/03 08:16:56;;;;;;;;;;;27.30;67.20;;;;;;5025781;28;42978;-81
2023/08/03 08:19:22;;;;;;;;;;;27.30;68.30;;;;;;5023421;28;43836;-81
2023/08/03 08:21:47;;;;;;;;;;;27.30;68.50;;;;;;5023453;28;42912;-81
2023/08/03 08:24:13;;;;;;;;;;;27.20;67.10;;;;;;5023166;28;42940;-81
2023/08/03 08:26:38;;;;;;;;;;;27.20;67.00;;;;;;5024000;28;42955;-81
2023/08/03 08:29:04;;;;;;;;;;;27.30;67.70;;;;;;5025137;28;42931;-81
2023/08/03 08:31:29;;;;;;;;;;;27.30;67.70;;;;;;5024239;28;43003;-81
2023/08/03 08:33:55;;;;;;;;;;;27.30;67.00;;;;;;5024180;28;42991;-82
2023/08/03 08:36:20;;;;;;;;;;;27.30;67.60;;;;;;5024038;28;43084;-81
2023/08/03 08:38:46;;;;;;;;;;;27.30;67.50;;;;;;5025264;28;43071;-81
2023/08/03 08:41:11;;;;;;;;;;;27.30;66.80;;;;;;5024402;28;42995;-81
2023/08/03 08:43:39;;;;;;;;;;;27.30;67.50;;;;;;5023744;28;42931;-82
2023/08/03 08:46:05;;;;;;;;;;;27.40;67.80;;;;;;5024948;28;43059;-81
2023/08/03 08:48:31;;;;;;;;;;;27.30;67.30;;;;;;5023454;28;43040;-81
2023/08/03 08:50:59;;;;;;;;;;;27.30;67.30;;;;;;5024276;28;42945;-81
2023/08/03 08:53:25;;;;;;;;;;;27.40;67.80;;;;;;5024567;28;42941;-81
2023/08/03 08:55:50;;;;;;;;;;;27.40;67.20;;;;;;5025199;28;42980;-81
2023/08/03 08:58:16;;;;;;;;;;;26.60;67.10;;;;;;5024929;28;43392;-81
2023/08/03 09:00:43;;;;;;;;;;;27.30;67.00;;;;;;5024539;28;42921;-81
2023/08/03 09:03:09;;;;;;;;;;;27.30;67.60;;;;;;5024323;28;43511;-81
2023/08/03 09:05:36;;;;;;;;;;;27.40;68.30;;;;;;5024764;28;42803;-81
2023/08/03 09:08:03;;;;;;;;;;;27.40;67.30;;;;;;5025049;28;42994;-81
2023/08/03 09:10:29;;;;;;;;;;;27.40;67.80;;;;;;5024622;28;42846;-81
2023/08/03 09:12:55;;;;;;;;;;;27.40;67.90;;;;;;5024353;28;43497;-81
2023/08/03 09:15:35;;;;;;;;;;;27.40;67.80;;;;;;5024605;28;43108;-81
2023/08/03 09:18:04;;;;;;;;;;;27.40;67.80;;;;;;5025039;28;43591;-81
2023/08/03 09:20:31;;;;;;;;;;;27.40;67.80;;;;;;5020989;28;43251;-81
2023/08/03 09:22:57;;;;;;;;;;;27.40;68.00;;;;;;5034169;28;42927;-81
2023/08/03 09:25:23;;;;;;;;;;;27.40;68.00;;;;;;5042313;28;42924;-81
2023/08/03 09:27:50;;;;;;;;;;;27.40;68.20;;;;;;5026722;28;43547;-81
2023/08/03 09:30:16;;;;;;;;;;;27.40;68.00;;;;;;5026205;28;42969;-81
2023/08/03 09:32:42;;;;;;;;;;;27.40;68.10;;;;;;5027048;28;43470;-81
2023/08/03 09:35:26;;;;;;;;;;;27.50;68.40;;;;;;5026178;28;42896;-81
2023/08/03 09:37:53;;;;;;;;;;;28.20;68.90;;;;;;5026814;28;43083;-81
2023/08/03 09:40:20;;;;;;;;;;;27.50;68.40;;;;;;5028637;28;42997;-82
2023/08/03 09:42:48;;;;;;;;;;;27.50;68.50;;;;;;5040603;28;43387;-81
2023/08/03 09:45:14;;;;;;;;;;;27.50;68.80;;;;;;5038900;28;42975;-81
2023/08/03 09:47:40;;;;;;;;;;;27.50;69.10;;;;;;5038965;28;43046;-80
2023/08/03 09:50:09;;;;;;;;;;;27.50;68.70;;;;;;5037377;28;43031;-82
2023/08/03 09:52:55;;;;;;;;;;;27.50;68.70;;;;;;5034680;28;42858;-82
2023/08/03 09:55:26;;;;;;;;;;;27.50;69.30;;;;;;5041022;28;43486;-81
2023/08/03 09:58:06;;;;;;;;;;;27.40;69.70;;;;;;5043883;28;44329;-81
2023/08/03 10:00:32;;;;;;;;;;;27.50;69.00;;;;;;5041847;28;42891;-80
2023/08/03 10:03:11;;;;;;;;;;;27.50;69.10;;;;;;5035572;28;43344;-80
2023/08/03 10:05:40;;;;;;;;;;;27.50;69.20;;;;;;5043523;28;43001;-85
2023/08/03 10:08:10;;;;;;;;;;;27.50;68.50;;;;;;5043351;28;44562;-84
2023/08/03 10:10:38;;;;;;;;;;;27.20;68.70;;;;;;5038050;28;43277;-82
2023/08/03 10:13:07;;;;;;;;;;;27.50;68.70;;;;;;5043882;28;43553;-82
2023/08/03 10:15:33;;;;;;;;;;;27.50;68.60;;;;;;5044425;28;43206;-83
2023/08/03 10:17:59;;;;;;;;;;;27.50;67.90;;;;;;5045893;28;42982;-85
2023/08/03 10:20:25;;;;;;;;;;;27.50;68.80;;;;;;5044760;28;42868;-86
2023/08/03 10:23:09;;;;;;;;;;;27.50;68.50;;;;;;5045528;28;43723;-83
2023/08/03 10:25:50;;;;;;;;;;;27.50;68.70;;;;;;5046218;28;43070;-84
2023/08/03 10:28:15;;;;;;;;;;;27.60;69.50;;;;;;5045269;28;42931;-86
2023/08/03 10:30:59;;;;;;;;;;;27.50;69.00;;;;;;5026366;28;42857;-87
2023/08/03 10:33:45;;;;;;;;;;;27.50;68.80;;;;;;5025624;28;43605;-83
2023/08/03 10:38:59;;;;;;;;;;;27.60;68.80;;;;;;5026385;28;42953;-86
2023/08/03 10:41:30;;;;;;;;;;;27.60;68.70;;;;;;5030940;28;42976;-86
2023/08/03 10:44:09;;;;;;;;;;;27.50;69.00;;;;;;5043749;28;44369;-82
2023/08/03 10:46:50;;;;;;;;;;;27.60;68.90;;;;;;5036213;28;43070;-82
2023/08/03 10:49:22;;;;;;;;;;;27.60;69.00;;;;;;5045730;28;43578;-93
2023/08/03 10:51:48;;;;;;;;;;;27.60;69.00;;;;;;5042724;28;43036;-84
2023/08/03 10:54:14;;;;;;;;;;;27.50;69.00;;;;;;5044444;28;44589;-83
2023/08/03 10:56:40;;;;;;;;;;;27.60;69.00;;;;;;5029045;28;42996;-83
2023/08/03 10:59:05;;;;;;;;;;;27.60;70.20;;;;;;5028669;28;44899;-83
2023/08/03 11:01:31;;;;;;;;;;;27.60;69.70;;;;;;5045431;28;43310;-82
2023/08/03 11:03:58;;;;;;;;;;;27.60;69.30;;;;;;5042654;28;45253;-82
2023/08/03 11:06:24;;;;;;;;;;;27.60;69.00;;;;;;5038302;28;43070;-89
2023/08/03 11:08:50;;;;;;;;;;;27.60;69.00;;;;;;5035852;28;43037;-84
2023/08/03 11:11:21;;;;;;;;;;;27.60;68.90;;;;;;5039092;28;42998;-83
2023/08/03 11:13:47;;;;;;;;;;;27.60;69.00;;;;;;5048075;28;42912;-83
2023/08/03 11:16:16;;;;;;;;;;;27.60;69.80;;;;;;5024793;28;42961;-83
2023/08/03 11:18:45;;;;;;;;;;;27.60;69.40;;;;;;5032845;28;45152;-84
2023/08/03 11:21:11;;;;;;;;;;;27.80;69.60;;;;;;5041752;28;42935;-90
2023/08/03 11:23:37;;;;;;;;;;;27.60;70.10;;;;;;5043839;28;42994;-84
2023/08/03 11:26:06;;;;;;;;;;;28.10;69.90;;;;;;5041109;28;42961;-86
2023/08/03 11:28:41;;;;;;;;;;;27.60;70.00;;;;;;5039965;28;43491;-83
2023/08/03 11:31:14;;;;;;;;;;;27.70;69.30;;;;;;5038383;28;43060;-87
2023/08/03 11:33:41;;;;;;;;;;;27.80;69.50;;;;;;5036871;28;43928;-87
2023/08/03 11:36:08;;;;;;;;;;;27.60;69.50;;;;;;5034456;28;43221;-86
2023/08/03 11:38:34;;;;;;;;;;;27.60;69.30;;;;;;5036726;28;43869;-85
2023/08/03 11:40:59;;;;;;;;;;;27.70;70.60;;;;;;5035498;28;43070;-85
2023/08/03 11:43:25;;;;;;;;;;;27.70;69.50;;;;;;5039465;28;43658;-84
2023/08/03 11:45:55;;;;;;;;;;;27.60;68.70;;;;;;5043322;28;42803;-84
2023/08/03 11:48:21;;;;;;;;;;;27.60;69.30;;;;;;5034900;28;43105;-83
2023/08/03 11:50:47;;;;;;;;;;;27.70;69.30;;;;;;5035423;28;42950;-83
2023/08/03 11:53:22;;;;;;;;;;;27.60;68.20;;;;;;5039307;28;43066;-87
2023/08/03 11:55:48;;;;;;;;;;;27.60;68.10;;;;;;5043640;28;42941;-87
2023/08/03 11:58:14;;;;;;;;;;;27.70;68.70;;;;;;5042989;28;43038;-83
2023/08/03 12:00:40;;;;;;;;;;;27.60;67.90;;;;;;5044213;28;42983;-84
2023/08/03 12:03:06;;;;;;;;;;;27.60;68.90;;;;;;5042354;28;42994;-83
2023/08/03 12:05:41;;;;;;;;;;;27.70;68.20;;;;;;5039870;28;43349;-83
2023/08/03 12:08:08;;;;;;;;;;;27.60;68.00;;;;;;5035511;28;44172;-83
2023/08/03 12:10:34;;;;;;;;;;;27.60;68.40;;;;;;5038433;28;43026;-82
2023/08/03 12:13:00;;;;;;;;;;;27.70;68.40;;;;;;5040695;28;43577;-82
2023/08/03 12:15:26;;;;;;;;;;;27.70;68.20;;;;;;5038319;28;43096;-83
2023/08/03 12:17:51;;;;;;;;;;;27.70;68.10;;;;;;5039547;28;44128;-84
2023/08/03 12:20:17;;;;;;;;;;;27.70;68.20;;;;;;5040591;28;43671;-82
2023/08/03 12:22:45;;;;;;;;;;;27.70;66.80;;;;;;5040266;28;43604;-83
2023/08/03 12:25:12;;;;;;;;;;;27.60;66.40;;;;;;5029701;28;59675;-81
2023/08/03 12:27:37;;;;;;;;;;;27.70;66.20;;;;;;5036038;28;43051;-82
2023/08/03 12:30:03;;;;;;;;;;;27.70;66.10;;;;;;5025919;28;43036;-83
2023/08/03 12:32:29;;;;;;;;;;;27.70;66.30;;;;;;5031510;28;43302;-80
2023/08/03 12:34:54;;;;;;;;;;;27.50;65.80;;;;;;5039541;28;42995;-88
2023/08/03 12:37:20;;;;;;;;;;;27.70;65.90;;;;;;5043925;28;43015;-84
2023/08/03 12:39:46;;;;;;;;;;;27.70;66.00;;;;;;5043740;28;43018;-81
2023/08/03 12:42:11;;;;;;;;;;;27.70;65.90;;;;;;5043920;28;43895;-85
2023/08/03 12:44:37;;;;;;;;;;;27.70;65.80;;;;;;5030896;28;42915;-80
2023/08/03 12:47:02;;;;;;;;;;;27.70;65.80;;;;;;5025498;28;43132;-82
2023/08/03 12:49:28;;;;;;;;;;;27.70;65.70;;;;;;5023973;28;42968;-80
2023/08/03 12:51:53;;;;;;;;;;;27.70;65.80;;;;;;5024533;28;43037;-93
2023/08/03 12:54:19;;;;;;;;;;;27.70;65.70;;;;;;5025331;28;42951;-81
2023/08/03 12:56:46;;;;;;;;;;;27.70;65.60;;;;;;5038686;28;42998;-80
2023/08/03 12:59:11;;;;;;;;;;;27.70;65.70;;;;;;5047748;28;42985;-84
2023/08/03 13:01:37;;;;;;;;;;;27.80;65.70;;;;;;5047576;28;43700;-83
2023/08/03 13:04:02;;;;;;;;;;;27.70;66.30;;;;;;5046118;28;42951;-80
2023/08/03 13:06:28;;;;;;;;;;;27.70;65.70;;;;;;5040880;28;43725;-80
2023/08/03 13:08:53;;;;;;;;;;;27.80;65.70;;;;;;5027517;28;43035;-81
2023/08/03 13:11:19;;;;;;;;;;;27.80;65.70;;;;;;5027595;28;42880;-80
2023/08/03 13:13:45;;;;;;;;;;;27.70;65.60;;;;;;5028075;28;42868;-80
2023/08/03 13:16:10;;;;;;;;;;;27.70;65.60;;;;;;5027642;28;42923;-80
2023/08/03 13:18:36;;;;;;;;;;;27.70;65.80;;;;;;5027965;28;43043;-80
2023/08/03 13:21:01;;;;;;;;;;;27.80;65.60;;;;;;5027166;28;43107;-80
2023/08/03 13:23:27;;;;;;;;;;;27.80;65.60;;;;;;5027460;28;42940;-80
2023/08/03 13:25:52;;;;;;;;;;;27.80;65.70;;;;;;5027280;28;43046;-81
2023/08/03 13:28:18;;;;;;;;;;;27.80;65.70;;;;;;5027922;28;42920;-80
2023/08/03 13:30:43;;;;;;;;;;;27.80;65.70;;;;;;5026863;28;43477;-80
2023/08/03 13:33:09;;;;;;;;;;;27.80;65.70;;;;;;5027115;28;43039;-80
2023/08/03 13:35:34;;;;;;;;;;;27.80;65.60;;;;;;5027048;28;44024;-80
2023/08/03 13:38:00;;;;;;;;;;;27.80;65.60;;;;;;5032035;28;43026;-80
2023/08/03 13:40:25;;;;;;;;;;;27.80;65.50;;;;;;5047287;28;42816;-81
2023/08/03 13:42:51;;;;;;;;;;;27.80;65.60;;;;;;5047285;28;43130;-80
2023/08/03 13:45:17;;;;;;;;;;;27.80;65.30;;;;;;5044166;28;42846;-81
2023/08/03 13:47:42;;;;;;;;;;;27.80;65.40;;;;;;5027198;28;42999;-81
2023/08/03 13:50:08;;;;;;;;;;;27.80;65.30;;;;;;5027100;28;42912;-81
2023/08/03 13:52:33;;;;;;;;;;;27.80;65.30;;;;;;5027259;28;42828;-81
2023/08/03 13:55:00;;;;;;;;;;;27.80;65.20;;;;;;5026800;28;42931;-81
2023/08/03 13:57:25;;;;;;;;;;;27.80;65.20;;;;;;5042278;28;42961;-80
2023/08/03 13:59:51;;;;;;;;;;;27.80;65.10;;;;;;5045209;28;44764;-80
2023/08/03 14:02:16;;;;;;;;;;;27.80;65.00;;;;;;5047032;28;42970;-82
2023/08/03 14:04:42;;;;;;;;;;;27.80;65.00;;;;;;5046090;28;42842;-94
2023/08/03 14:07:08;;;;;;;;;;;27.80;65.10;;;;;;5045039;28;43011;-85
2023/08/03 14:09:33;;;;;;;;;;;27.80;65.00;;;;;;5045204;28;44013;-83
2023/08/03 14:11:59;;;;;;;;;;;27.80;64.90;;;;;;5047000;28;42801;-82
2023/08/03 14:14:24;;;;;;;;;;;27.80;64.90;;;;;;5046791;28;42871;-81
2023/08/03 14:16:50;;;;;;;;;;;27.80;64.90;;;;;;5046023;28;42807;-82